createdAt,value
2022-10-07T00:00:04.741Z,937.35
2022-10-07T00:05:03.158Z,937.45
2022-10-07T00:10:04.359Z,937.49
2022-10-07T00:15:03.053Z,937.49
2022-10-07T00:20:04.121Z,937.53
2022-10-07T00:25:03.204Z,937.53
2022-10-07T00:30:04.307Z,937.60
2022-10-07T00:35:03.075Z,937.59
2022-10-07T00:40:04.525Z,937.60
2022-10-07T00:45:03.075Z,937.68
2022-10-07T00:50:04.143Z,937.76
2022-10-07T00:55:03.161Z,937.74
2022-10-07T01:00:06.420Z,937.74
2022-10-07T01:05:03.092Z,937.78
2022-10-07T01:10:04.113Z,937.80
2022-10-07T01:15:03.044Z,937.88
2022-10-07T01:20:04.200Z,937.96
2022-10-07T01:25:03.168Z,938.00
2022-10-07T01:30:04.535Z,938.15
2022-10-07T01:35:03.264Z,938.33
2022-10-07T01:40:04.191Z,938.49
2022-10-07T01:45:03.096Z,938.58
2022-10-07T01:50:04.209Z,938.72
2022-10-07T01:55:03.109Z,938.76
2022-10-07T02:00:06.648Z,938.72
2022-10-07T02:05:03.117Z,938.74
2022-10-07T02:10:04.179Z,938.82
2022-10-07T02:15:03.157Z,938.84
2022-10-07T02:20:09.178Z,938.90
2022-10-07T02:25:03.110Z,938.92
2022-10-07T02:30:04.862Z,938.94
2022-10-07T02:35:03.220Z,938.92
2022-10-07T02:40:06.138Z,938.88
2022-10-07T02:45:03.039Z,938.80
2022-10-07T02:50:04.094Z,938.78
2022-10-07T02:55:03.234Z,938.78
2022-10-07T03:00:10.116Z,938.76
2022-10-07T03:05:03.184Z,938.76
2022-10-07T03:10:04.163Z,938.74
2022-10-07T03:15:03.119Z,938.74
2022-10-07T03:20:04.081Z,938.90
2022-10-07T03:25:03.081Z,939.00
2022-10-07T03:30:05.694Z,939.02
2022-10-07T03:35:03.110Z,938.94
2022-10-07T03:40:04.268Z,938.90
2022-10-07T03:45:03.087Z,938.82
2022-10-07T03:50:06.610Z,938.88
2022-10-07T03:55:03.084Z,938.88
2022-10-07T04:00:04.520Z,938.96
2022-10-07T04:05:03.141Z,938.98
2022-10-07T04:10:04.172Z,938.96
2022-10-07T04:15:03.045Z,939.02
2022-10-07T04:20:04.142Z,939.07
2022-10-07T04:25:03.076Z,939.04
2022-10-07T04:30:05.836Z,939.09
2022-10-07T04:35:03.105Z,939.09
2022-10-07T04:40:04.392Z,939.04
2022-10-07T04:45:03.064Z,938.90
2022-10-07T04:50:04.181Z,938.86
2022-10-07T04:55:03.167Z,938.84
2022-10-07T05:00:04.669Z,938.84
2022-10-07T05:05:03.250Z,938.82
2022-10-07T05:10:04.149Z,938.82
2022-10-07T05:15:03.261Z,938.94
2022-10-07T05:20:04.213Z,939.02
2022-10-07T05:25:03.038Z,939.04
2022-10-07T05:30:06.491Z,939.00
2022-10-07T05:35:03.250Z,939.17
2022-10-07T05:40:04.088Z,939.13
2022-10-07T05:45:03.037Z,939.09
2022-10-07T05:50:04.096Z,939.17
2022-10-07T05:55:03.022Z,939.31
2022-10-07T06:00:06.562Z,939.15
2022-10-07T06:05:03.155Z,939.09
2022-10-07T06:10:04.021Z,938.90
2022-10-07T06:15:04.224Z,938.72
2022-10-07T06:20:04.125Z,938.54
2022-10-07T06:25:03.176Z,938.49
2022-10-07T06:30:06.488Z,938.33
2022-10-07T06:35:03.130Z,938.27
2022-10-07T06:40:04.119Z,938.19
2022-10-07T06:45:03.133Z,938.25
2022-10-07T06:50:04.186Z,938.31
2022-10-07T06:55:03.063Z,938.45
2022-10-07T07:00:06.428Z,938.52
2022-10-07T07:10:04.140Z,938.58
2022-10-07T07:15:03.034Z,938.52
2022-10-07T07:20:04.119Z,938.54
2022-10-07T07:25:03.184Z,938.64
2022-10-07T07:30:05.461Z,938.62
2022-10-07T07:35:03.115Z,938.70
2022-10-07T07:40:04.122Z,938.84
2022-10-07T07:45:03.163Z,938.98
2022-10-07T07:50:04.253Z,939.06
2022-10-07T07:55:03.212Z,939.11
2022-10-07T08:00:06.436Z,939.19
2022-10-07T08:05:03.261Z,939.25
2022-10-07T08:10:04.041Z,939.37
2022-10-07T08:15:03.152Z,939.41
2022-10-07T08:20:04.196Z,939.43
2022-10-07T08:25:02.989Z,939.49
2022-10-07T08:30:06.509Z,939.56
2022-10-07T08:35:03.124Z,939.70
2022-10-07T08:40:04.158Z,939.72
2022-10-07T08:45:04.147Z,939.86
2022-10-07T08:50:04.125Z,939.94
2022-10-07T08:55:03.059Z,939.88
2022-10-07T09:00:09.696Z,939.94
2022-10-07T09:05:03.085Z,940.04
2022-10-07T09:10:04.175Z,940.15
2022-10-07T09:15:03.153Z,940.33
2022-10-07T09:20:04.225Z,940.43
2022-10-07T09:25:04.365Z,940.49
2022-10-07T09:30:04.129Z,940.63
2022-10-07T09:35:03.095Z,940.63
2022-10-07T09:40:04.146Z,940.61
2022-10-07T09:45:04.141Z,940.61
2022-10-07T09:50:04.137Z,940.70
2022-10-07T09:55:03.103Z,940.82
2022-10-07T10:00:04.542Z,941.04
2022-10-07T10:05:03.097Z,941.09
2022-10-07T10:10:04.138Z,941.08
2022-10-07T10:15:03.081Z,941.06
2022-10-07T10:20:04.266Z,941.04
2022-10-07T10:25:03.106Z,941.11
2022-10-07T10:30:04.370Z,941.15
2022-10-07T10:35:03.090Z,941.13
2022-10-07T10:40:06.487Z,941.23
2022-10-07T10:45:03.141Z,941.29
2022-10-07T10:50:04.196Z,941.25
2022-10-07T10:55:03.079Z,941.27
2022-10-07T11:00:06.448Z,941.45
2022-10-07T11:05:03.198Z,941.55
2022-10-07T11:10:04.206Z,941.53
2022-10-07T11:15:03.132Z,941.61
2022-10-07T11:20:04.206Z,941.72
2022-10-07T11:25:03.064Z,941.72
2022-10-07T11:30:06.316Z,941.84
2022-10-07T11:35:03.089Z,941.90
2022-10-07T11:40:04.182Z,941.92
2022-10-07T11:45:03.185Z,941.98
2022-10-07T11:50:04.169Z,942.00
2022-10-07T11:55:03.089Z,942.11
2022-10-07T12:00:04.965Z,942.19
2022-10-07T12:05:03.092Z,942.25
2022-10-07T12:10:03.987Z,942.35
2022-10-07T12:15:03.297Z,942.47
2022-10-07T12:20:04.207Z,942.53
2022-10-07T12:25:04.950Z,942.61
2022-10-07T12:30:06.412Z,942.61
2022-10-07T12:35:03.044Z,942.51
2022-10-07T12:40:04.204Z,942.55
2022-10-07T12:45:03.102Z,942.59
2022-10-07T12:50:04.081Z,942.59
2022-10-07T12:55:03.093Z,942.51
2022-10-07T13:00:06.504Z,942.53
2022-10-07T13:05:03.114Z,942.51
2022-10-07T13:10:04.085Z,942.61
2022-10-07T13:15:03.056Z,942.70
2022-10-07T13:20:04.229Z,942.66
2022-10-07T13:25:03.112Z,942.68
2022-10-07T13:30:06.163Z,942.70
2022-10-07T13:35:03.174Z,942.61
2022-10-07T13:40:04.260Z,942.55
2022-10-07T13:45:03.136Z,942.55
2022-10-07T13:50:04.251Z,942.59
2022-10-07T13:55:03.010Z,942.65
2022-10-07T14:00:06.282Z,942.57
2022-10-07T14:05:03.028Z,942.59
2022-10-07T14:10:05.419Z,942.51
2022-10-07T14:15:03.084Z,942.47
2022-10-07T14:20:04.208Z,942.37
2022-10-07T14:25:03.016Z,942.47
2022-10-07T14:30:04.269Z,942.47
2022-10-07T14:35:03.270Z,942.53
2022-10-07T14:40:09.214Z,942.53
2022-10-07T14:45:03.075Z,942.51
2022-10-07T14:50:04.064Z,942.55
2022-10-07T14:55:03.283Z,942.47
2022-10-07T15:00:06.394Z,942.45
2022-10-07T15:05:03.162Z,942.31
2022-10-07T15:10:04.198Z,942.19
2022-10-07T15:15:03.064Z,942.17
2022-10-07T15:20:04.332Z,942.19
2022-10-07T15:25:03.144Z,942.15
2022-10-07T15:30:04.271Z,942.02
2022-10-07T15:35:03.096Z,942.04
2022-10-07T15:40:04.221Z,941.98
2022-10-07T15:45:03.203Z,941.98
2022-10-07T15:50:04.340Z,941.92
2022-10-07T15:55:07.544Z,941.80
2022-10-07T16:00:06.425Z,941.74
2022-10-07T16:05:03.053Z,941.68
2022-10-07T16:10:06.690Z,941.63
2022-10-07T16:15:06.560Z,941.68
2022-10-07T16:20:09.030Z,941.66
2022-10-07T16:25:11.484Z,941.61
2022-10-07T16:30:04.921Z,941.55
2022-10-07T16:35:03.272Z,941.61
2022-10-07T16:40:05.231Z,941.55
2022-10-07T16:45:03.152Z,941.53
2022-10-07T16:50:10.207Z,941.41
2022-10-07T16:55:03.358Z,941.43
2022-10-07T17:00:04.614Z,941.41
2022-10-07T17:05:04.191Z,941.31
2022-10-07T17:10:05.364Z,941.29
2022-10-07T17:15:03.180Z,941.33
2022-10-07T17:20:04.218Z,941.33
2022-10-07T17:25:03.175Z,941.23
2022-10-07T17:30:04.358Z,941.19
2022-10-07T17:35:03.111Z,941.23
2022-10-07T17:40:04.328Z,941.17
2022-10-07T17:45:03.084Z,941.11
2022-10-07T17:50:04.229Z,940.92
2022-10-07T17:55:03.166Z,940.84
2022-10-07T18:00:04.458Z,940.80
2022-10-07T18:05:03.189Z,940.82
2022-10-07T18:10:04.247Z,940.76
2022-10-07T18:15:03.141Z,940.74
2022-10-07T18:20:04.328Z,940.70
2022-10-07T18:25:04.184Z,940.63
2022-10-07T18:30:05.246Z,940.53
2022-10-07T18:35:03.299Z,940.53
2022-10-07T18:40:04.244Z,940.47
2022-10-07T18:45:03.114Z,940.49
2022-10-07T18:50:04.289Z,940.43
2022-10-07T18:55:03.323Z,940.47
2022-10-07T19:00:06.585Z,940.47
2022-10-07T19:05:03.139Z,940.47
2022-10-07T19:10:04.245Z,940.49
2022-10-07T19:15:03.168Z,940.45
2022-10-07T19:20:05.860Z,940.47
2022-10-07T19:25:03.156Z,940.43
2022-10-07T19:30:06.096Z,940.47
2022-10-07T19:35:03.182Z,940.37
2022-10-07T19:40:05.216Z,940.31
2022-10-07T19:45:03.115Z,940.31
2022-10-07T19:50:04.057Z,940.29
2022-10-07T19:55:03.174Z,940.39
2022-10-07T20:00:06.244Z,940.45
2022-10-07T20:05:03.116Z,940.47
2022-10-07T20:10:04.296Z,940.51
2022-10-07T20:15:03.079Z,940.55
2022-10-07T20:20:04.188Z,940.61
2022-10-07T20:25:03.195Z,940.63
2022-10-07T20:30:04.974Z,940.64
2022-10-07T20:35:04.147Z,940.66
2022-10-07T20:40:04.163Z,940.64
2022-10-07T20:45:03.090Z,940.70
2022-10-07T20:50:09.290Z,940.72
2022-10-07T20:55:03.170Z,940.76
2022-10-07T21:00:05.816Z,940.74
2022-10-07T21:05:03.050Z,940.78
2022-10-07T21:10:04.130Z,940.86
2022-10-07T21:15:03.081Z,940.88
2022-10-07T21:20:04.160Z,940.90
2022-10-07T21:25:03.158Z,941.06
2022-10-07T21:30:05.613Z,941.06
2022-10-07T21:35:03.081Z,941.08
2022-10-07T21:40:04.326Z,941.13
2022-10-07T21:45:03.182Z,941.13
2022-10-07T21:50:04.194Z,941.09
2022-10-07T21:55:03.239Z,941.08
2022-10-07T22:00:06.312Z,941.06
2022-10-07T22:05:03.134Z,941.09
2022-10-07T22:10:04.320Z,941.09
2022-10-07T22:15:03.154Z,941.13
2022-10-07T22:20:04.418Z,941.13
2022-10-07T22:25:03.227Z,941.19
2022-10-07T22:30:04.594Z,941.21
2022-10-07T22:35:03.356Z,941.19
2022-10-07T22:40:04.318Z,941.17
2022-10-07T22:45:03.345Z,941.15
2022-10-07T22:50:04.283Z,941.15
2022-10-07T22:55:03.219Z,941.08
2022-10-07T23:00:04.492Z,941.04
2022-10-07T23:05:03.165Z,941.06
2022-10-07T23:10:09.182Z,941.09
2022-10-07T23:15:03.184Z,941.11
2022-10-07T23:20:04.245Z,941.17
2022-10-07T23:25:03.291Z,941.19
2022-10-07T23:30:04.671Z,941.21
2022-10-07T23:35:03.162Z,941.31
2022-10-07T23:40:06.520Z,941.25
2022-10-07T23:45:03.074Z,941.27
2022-10-07T23:50:04.272Z,941.35
2022-10-07T23:55:03.175Z,941.29
